sensor_id;sensor_type;location;lat;lon;timestamp;P1;durP1;ratioP1;P2;durP2;ratioP2
78668;SDS011;67984;45.118;20.724;2023-05-28T00:02:31;23.00;;;8.60;;
78668;SDS011;67984;45.118;20.724;2023-05-28T00:12:31;17.50;;;9.33;;
78668;SDS011;67984;45.118;20.724;2023-05-28T00:22:32;17.90;;;8.93;;
78668;SDS011;67984;45.118;20.724;2023-05-28T00:32:33;15.40;;;8.33;;
78668;SDS011;67984;45.118;20.724;2023-05-28T00:42:33;17.40;;;8.73;;
78668;SDS011;67984;45.118;20.724;2023-05-28T00:52:34;17.15;;;8.85;;
78668;SDS011;67984;45.118;20.724;2023-05-28T01:02:36;24.30;;;12.07;;
78668;SDS011;67984;45.118;20.724;2023-05-28T01:12:37;14.70;;;8.68;;
78668;SDS011;67984;45.118;20.724;2023-05-28T01:22:40;20.05;;;8.75;;
78668;SDS011;67984;45.118;20.724;2023-05-28T01:32:46;25.98;;;10.60;;
78668;SDS011;67984;45.118;20.724;2023-05-28T01:42:48;15.82;;;11.65;;
78668;SDS011;67984;45.118;20.724;2023-05-28T01:52:51;24.40;;;13.82;;
78668;SDS011;67984;45.118;20.724;2023-05-28T02:02:52;20.33;;;13.60;;
78668;SDS011;67984;45.118;20.724;2023-05-28T02:12:54;17.83;;;10.55;;
78668;SDS011;67984;45.118;20.724;2023-05-28T02:22:55;20.92;;;12.15;;
78668;SDS011;67984;45.118;20.724;2023-05-28T02:32:56;20.33;;;13.43;;
78668;SDS011;67984;45.118;20.724;2023-05-28T02:42:57;25.83;;;12.23;;
78668;SDS011;67984;45.118;20.724;2023-05-28T02:52:57;23.42;;;14.00;;
78668;SDS011;67984;45.118;20.724;2023-05-28T03:02:58;30.52;;;14.73;;
78668;SDS011;67984;45.118;20.724;2023-05-28T03:12:59;29.70;;;14.05;;
78668;SDS011;67984;45.118;20.724;2023-05-28T03:23:01;25.83;;;12.52;;
78668;SDS011;67984;45.118;20.724;2023-05-28T03:33:03;23.35;;;10.82;;
78668;SDS011;67984;45.118;20.724;2023-05-28T03:43:05;26.17;;;11.07;;
78668;SDS011;67984;45.118;20.724;2023-05-28T03:53:06;20.48;;;12.15;;
78668;SDS011;67984;45.118;20.724;2023-05-28T04:03:08;129.05;;;54.75;;
78668;SDS011;67984;45.118;20.724;2023-05-28T04:13:11;38.75;;;24.13;;
78668;SDS011;67984;45.118;20.724;2023-05-28T04:23:12;16.40;;;9.10;;
78668;SDS011;67984;45.118;20.724;2023-05-28T04:33:16;30.40;;;9.17;;
78668;SDS011;67984;45.118;20.724;2023-05-28T04:43:18;27.55;;;11.60;;
78668;SDS011;67984;45.118;20.724;2023-05-28T04:53:19;23.85;;;9.35;;
78668;SDS011;67984;45.118;20.724;2023-05-28T05:03:20;19.60;;;8.77;;
78668;SDS011;67984;45.118;20.724;2023-05-28T05:13:21;18.50;;;9.38;;
78668;SDS011;67984;45.118;20.724;2023-05-28T05:23:24;20.58;;;8.63;;
78668;SDS011;67984;45.118;20.724;2023-05-28T05:33:24;17.93;;;9.43;;
78668;SDS011;67984;45.118;20.724;2023-05-28T05:43:43;24.88;;;10.05;;
78668;SDS011;67984;45.118;20.724;2023-05-28T05:53:44;17.45;;;9.60;;
78668;SDS011;67984;45.118;20.724;2023-05-28T06:03:46;26.00;;;9.75;;
78668;SDS011;67984;45.118;20.724;2023-05-28T06:14:05;16.80;;;8.48;;
78668;SDS011;67984;45.118;20.724;2023-05-28T06:24:07;17.50;;;7.50;;
78668;SDS011;67984;45.118;20.724;2023-05-28T06:34:08;14.73;;;7.20;;
78668;SDS011;67984;45.118;20.724;2023-05-28T06:44:09;18.05;;;6.18;;
78668;SDS011;67984;45.118;20.724;2023-05-28T06:54:27;13.32;;;7.68;;
78668;SDS011;67984;45.118;20.724;2023-05-28T07:04:28;14.63;;;7.05;;
78668;SDS011;67984;45.118;20.724;2023-05-28T07:14:37;10.95;;;7.00;;
78668;SDS011;67984;45.118;20.724;2023-05-28T07:24:38;16.92;;;7.20;;
78668;SDS011;67984;45.118;20.724;2023-05-28T07:34:39;13.68;;;6.47;;
78668;SDS011;67984;45.118;20.724;2023-05-28T07:44:41;15.88;;;5.95;;
78668;SDS011;67984;45.118;20.724;2023-05-28T07:54:42;14.23;;;6.18;;
78668;SDS011;67984;45.118;20.724;2023-05-28T08:04:47;11.68;;;6.13;;
78668;SDS011;67984;45.118;20.724;2023-05-28T08:14:49;14.50;;;6.13;;
78668;SDS011;67984;45.118;20.724;2023-05-28T08:24:51;14.98;;;6.03;;
78668;SDS011;67984;45.118;20.724;2023-05-28T08:34:52;15.30;;;6.72;;
78668;SDS011;67984;45.118;20.724;2023-05-28T08:44:54;10.80;;;5.63;;
78668;SDS011;67984;45.118;20.724;2023-05-28T08:54:57;12.77;;;5.20;;
78668;SDS011;67984;45.118;20.724;2023-05-28T09:04:59;9.90;;;5.85;;
78668;SDS011;67984;45.118;20.724;2023-05-28T09:15:00;10.82;;;5.63;;
78668;SDS011;67984;45.118;20.724;2023-05-28T09:25:01;12.10;;;4.95;;
78668;SDS011;67984;45.118;20.724;2023-05-28T09:35:30;11.70;;;6.05;;
78668;SDS011;67984;45.118;20.724;2023-05-28T09:45:32;13.73;;;4.88;;
78668;SDS011;67984;45.118;20.724;2023-05-28T09:55:33;12.88;;;5.47;;
78668;SDS011;67984;45.118;20.724;2023-05-28T10:05:36;11.88;;;5.57;;
78668;SDS011;67984;45.118;20.724;2023-05-28T10:15:39;11.55;;;5.00;;
78668;SDS011;67984;45.118;20.724;2023-05-28T10:25:40;9.45;;;6.28;;
78668;SDS011;67984;45.118;20.724;2023-05-28T10:35:59;12.07;;;5.40;;
78668;SDS011;67984;45.118;20.724;2023-05-28T10:46:49;12.45;;;5.85;;
78668;SDS011;67984;45.118;20.724;2023-05-28T10:56:25;11.43;;;5.75;;
78668;SDS011;67984;45.118;20.724;2023-05-28T11:06:27;9.95;;;5.53;;
78668;SDS011;67984;45.118;20.724;2023-05-28T11:16:27;10.57;;;5.78;;
78668;SDS011;67984;45.118;20.724;2023-05-28T11:26:31;11.38;;;6.07;;
78668;SDS011;67984;45.118;20.724;2023-05-28T11:36:42;10.63;;;6.05;;
78668;SDS011;67984;45.118;20.724;2023-05-28T11:46:43;14.65;;;6.18;;
78668;SDS011;67984;45.118;20.724;2023-05-28T11:56:47;9.27;;;5.47;;
78668;SDS011;67984;45.118;20.724;2023-05-28T12:06:49;9.90;;;5.60;;
78668;SDS011;67984;45.118;20.724;2023-05-28T12:16:51;10.77;;;6.15;;
78668;SDS011;67984;45.118;20.724;2023-05-28T12:26:52;8.13;;;4.72;;
78668;SDS011;67984;45.118;20.724;2023-05-28T12:36:53;9.37;;;4.30;;
78668;SDS011;67984;45.118;20.724;2023-05-28T12:46:53;12.57;;;4.65;;
78668;SDS011;67984;45.118;20.724;2023-05-28T12:56:54;5.00;;;3.17;;
78668;SDS011;67984;45.118;20.724;2023-05-28T13:06:55;6.13;;;4.00;;
78668;SDS011;67984;45.118;20.724;2023-05-28T13:16:55;6.77;;;4.17;;
78668;SDS011;67984;45.118;20.724;2023-05-28T13:26:56;9.57;;;4.83;;
78668;SDS011;67984;45.118;20.724;2023-05-28T13:36:57;6.00;;;3.90;;
78668;SDS011;67984;45.118;20.724;2023-05-28T13:46:57;6.93;;;5.00;;
78668;SDS011;67984;45.118;20.724;2023-05-28T13:56:58;5.50;;;4.53;;
78668;SDS011;67984;45.118;20.724;2023-05-28T14:06:59;5.85;;;4.32;;
78668;SDS011;67984;45.118;20.724;2023-05-28T14:17:00;8.03;;;4.63;;
78668;SDS011;67984;45.118;20.724;2023-05-28T14:27:01;17.13;;;7.65;;
78668;SDS011;67984;45.118;20.724;2023-05-28T14:37:02;12.18;;;6.00;;
78668;SDS011;67984;45.118;20.724;2023-05-28T14:47:03;13.00;;;5.38;;
78668;SDS011;67984;45.118;20.724;2023-05-28T14:57:04;7.70;;;4.90;;
78668;SDS011;67984;45.118;20.724;2023-05-28T15:07:06;4.97;;;2.75;;
78668;SDS011;67984;45.118;20.724;2023-05-28T15:17:07;4.20;;;3.80;;
78668;SDS011;67984;45.118;20.724;2023-05-28T15:27:08;5.07;;;3.58;;
78668;SDS011;67984;45.118;20.724;2023-05-28T15:37:11;7.65;;;4.47;;
78668;SDS011;67984;45.118;20.724;2023-05-28T15:47:12;6.22;;;3.35;;
78668;SDS011;67984;45.118;20.724;2023-05-28T15:57:13;3.43;;;3.10;;
78668;SDS011;67984;45.118;20.724;2023-05-28T16:07:14;7.80;;;2.70;;
78668;SDS011;67984;45.118;20.724;2023-05-28T16:17:15;11.82;;;3.25;;
78668;SDS011;67984;45.118;20.724;2023-05-28T16:27:17;9.55;;;3.65;;
78668;SDS011;67984;45.118;20.724;2023-05-28T16:37:18;6.10;;;3.25;;
78668;SDS011;67984;45.118;20.724;2023-05-28T16:47:19;9.32;;;3.75;;
78668;SDS011;67984;45.118;20.724;2023-05-28T16:57:23;8.10;;;4.70;;
78668;SDS011;67984;45.118;20.724;2023-05-28T17:07:25;7.15;;;5.47;;
78668;SDS011;67984;45.118;20.724;2023-05-28T17:17:25;10.57;;;5.60;;
78668;SDS011;67984;45.118;20.724;2023-05-28T17:27:26;7.70;;;5.10;;
78668;SDS011;67984;45.118;20.724;2023-05-28T17:37:27;6.13;;;3.57;;
78668;SDS011;67984;45.118;20.724;2023-05-28T17:47:28;6.70;;;3.27;;
78668;SDS011;67984;45.118;20.724;2023-05-28T17:57:28;6.50;;;2.60;;
78668;SDS011;67984;45.118;20.724;2023-05-28T18:07:29;5.70;;;2.05;;
78668;SDS011;67984;45.118;20.724;2023-05-28T18:17:30;2.78;;;1.90;;
78668;SDS011;67984;45.118;20.724;2023-05-28T18:27:31;2.87;;;1.40;;
78668;SDS011;67984;45.118;20.724;2023-05-28T18:37:31;6.70;;;2.00;;
78668;SDS011;67984;45.118;20.724;2023-05-28T18:47:32;2.73;;;2.37;;
78668;SDS011;67984;45.118;20.724;2023-05-28T18:57:33;3.93;;;1.90;;
78668;SDS011;67984;45.118;20.724;2023-05-28T19:07:33;6.60;;;3.00;;
78668;SDS011;67984;45.118;20.724;2023-05-28T19:17:34;7.67;;;1.90;;
78668;SDS011;67984;45.118;20.724;2023-05-28T19:27:35;6.63;;;2.37;;
78668;SDS011;67984;45.118;20.724;2023-05-28T19:37:36;4.22;;;2.70;;
78668;SDS011;67984;45.118;20.724;2023-05-28T19:47:37;5.00;;;2.20;;
78668;SDS011;67984;45.118;20.724;2023-05-28T19:57:38;3.35;;;2.45;;
78668;SDS011;67984;45.118;20.724;2023-05-28T20:07:41;5.10;;;2.25;;
78668;SDS011;67984;45.118;20.724;2023-05-28T20:17:42;8.80;;;3.47;;
78668;SDS011;67984;45.118;20.724;2023-05-28T20:27:44;6.18;;;2.60;;
78668;SDS011;67984;45.118;20.724;2023-05-28T20:37:45;3.30;;;2.80;;
78668;SDS011;67984;45.118;20.724;2023-05-28T20:47:45;4.13;;;2.90;;
78668;SDS011;67984;45.118;20.724;2023-05-28T20:57:47;6.35;;;3.30;;
78668;SDS011;67984;45.118;20.724;2023-05-28T21:07:49;6.65;;;3.20;;
78668;SDS011;67984;45.118;20.724;2023-05-28T21:17:50;9.93;;;3.55;;
78668;SDS011;67984;45.118;20.724;2023-05-28T21:27:51;5.13;;;2.90;;
78668;SDS011;67984;45.118;20.724;2023-05-28T21:37:52;3.67;;;2.67;;
78668;SDS011;67984;45.118;20.724;2023-05-28T21:47:54;6.43;;;3.42;;
78668;SDS011;67984;45.118;20.724;2023-05-28T21:57:55;8.60;;;3.92;;
78668;SDS011;67984;45.118;20.724;2023-05-28T22:07:55;7.43;;;3.60;;
78668;SDS011;67984;45.118;20.724;2023-05-28T22:17:56;5.18;;;2.88;;
78668;SDS011;67984;45.118;20.724;2023-05-28T22:27:57;7.93;;;3.30;;
78668;SDS011;67984;45.118;20.724;2023-05-28T22:37:58;6.78;;;3.30;;
78668;SDS011;67984;45.118;20.724;2023-05-28T22:47:59;5.20;;;3.00;;
78668;SDS011;67984;45.118;20.724;2023-05-28T22:58:00;7.13;;;3.97;;
78668;SDS011;67984;45.118;20.724;2023-05-28T23:08:01;4.83;;;3.23;;
78668;SDS011;67984;45.118;20.724;2023-05-28T23:18:02;6.23;;;3.37;;
78668;SDS011;67984;45.118;20.724;2023-05-28T23:28:03;4.05;;;2.53;;
78668;SDS011;67984;45.118;20.724;2023-05-28T23:38:06;6.22;;;3.33;;
78668;SDS011;67984;45.118;20.724;2023-05-28T23:48:07;8.70;;;6.38;;
78668;SDS011;67984;45.118;20.724;2023-05-28T23:58:09;13.95;;;7.35;;
